Time;durP1;ratioP1;P1;durP2;ratioP2;P2;SDS_P1;SDS_P2;PMS_P1;PMS_P2;Temp;Humidity;BMP_temperature;BMP_pressure;BME280_temperature;BME280_humidity;BME280_pressure;Samples;Min_cycle;Max_cycle;Signal;HPM_P1;HPM_P2
2022/04/16 00:00:21;;;;;;;7.73;5.47;;;9.60;99.90;;;;;;5003094;28;20239;-75
2022/04/16 00:02:47;;;;;;;7.50;5.43;;;9.60;99.90;;;;;;5018891;28;20173;-74
2022/04/16 00:05:16;;;;;;;8.10;5.70;;;9.70;99.90;;;;;;5015613;28;20273;-75
2022/04/16 00:07:42;;;;;;;8.27;5.57;;;9.60;99.90;;;;;;4999199;28;20185;-75
2022/04/16 00:10:08;;;;;;;8.03;5.50;;;9.60;99.90;;;;;;4999591;28;20205;-74
2022/04/16 00:12:34;;;;;;;8.87;5.93;;;9.60;99.90;;;;;;5015599;28;20755;-75
2022/04/16 00:15:00;;;;;;;7.00;5.10;;;9.60;99.90;;;;;;5015698;28;20180;-75
2022/04/16 00:17:26;;;;;;;8.53;5.80;;;9.60;99.90;;;;;;4999514;28;20628;-75
2022/04/16 00:19:52;;;;;;;8.77;5.83;;;9.60;99.90;;;;;;5015316;28;20230;-75
2022/04/16 00:22:18;;;;;;;9.17;5.87;;;9.60;99.90;;;;;;5002608;28;20227;-75
2022/04/16 00:24:44;;;;;;;8.43;5.70;;;9.50;99.90;;;;;;5035048;28;20208;-74
2022/04/16 00:27:10;;;;;;;7.93;5.87;;;9.50;99.90;;;;;;5035069;28;20181;-75
2022/04/16 00:29:37;;;;;;;8.63;5.83;;;9.50;99.90;;;;;;5014529;28;20227;-75
2022/04/16 00:32:06;;;;;;;8.37;5.60;;;9.50;99.90;;;;;;5015097;28;20286;-75
2022/04/16 00:34:33;;;;;;;8.23;5.67;;;9.50;99.90;;;;;;5015133;28;20263;-75
2022/04/16 00:36:59;;;;;;;7.97;5.83;;;9.50;99.90;;;;;;4982816;28;20180;-75
2022/04/16 00:39:25;;;;;;;8.57;6.30;;;9.50;99.90;;;;;;4999226;28;20183;-75
2022/04/16 00:41:51;;;;;;;8.57;6.27;;;9.40;99.90;;;;;;5014830;28;20287;-75
2022/04/16 00:44:20;;;;;;;8.57;5.83;;;9.30;99.90;;;;;;4999016;28;20266;-75
2022/04/16 00:46:49;;;;;;;8.47;6.00;;;9.30;99.90;;;;;;5009059;28;20204;-75
2022/04/16 00:49:15;;;;;;;8.23;5.87;;;9.40;99.90;;;;;;5018198;28;20276;-75
2022/04/16 00:51:45;;;;;;;8.23;5.87;;;9.30;99.90;;;;;;5018562;28;20557;-75
2022/04/16 00:54:11;;;;;;;8.60;5.87;;;9.30;99.90;;;;;;5034669;28;20506;-75
2022/04/16 00:56:38;;;;;;;7.27;5.50;;;9.30;99.90;;;;;;5034397;28;20203;-74
2022/04/16 00:59:04;;;;;;;7.80;5.50;;;9.40;99.90;;;;;;5034854;28;20178;-74
2022/04/16 01:01:30;;;;;;;6.93;5.80;;;9.30;99.90;;;;;;5034740;28;20209;-75
2022/04/16 01:03:56;;;;;;;7.47;5.73;;;9.20;99.90;;;;;;5052203;28;20633;-74
2022/04/16 01:06:53;;;;;;;6.67;5.57;;;9.20;99.90;;;;;;5001443;28;20206;-74
2022/04/16 01:09:18;;;;;;;7.47;5.90;;;9.10;99.90;;;;;;5018442;28;20327;-74
2022/04/16 01:11:44;;;;;;;8.57;5.60;;;9.00;99.90;;;;;;5001936;28;20284;-75
2022/04/16 01:14:10;;;;;;;7.53;5.57;;;9.10;99.90;;;;;;5001926;28;20174;-74
2022/04/16 01:16:36;;;;;;;8.10;5.80;;;9.10;99.90;;;;;;5018076;28;20186;-74
2022/04/16 01:19:02;;;;;;;6.60;5.20;;;9.20;99.90;;;;;;5018334;28;20176;-75
2022/04/16 01:21:28;;;;;;;7.07;5.53;;;9.10;99.90;;;;;;5001510;28;20543;-74
2022/04/16 01:23:53;;;;;;;6.63;5.23;;;9.20;99.90;;;;;;5034567;28;20198;-75
2022/04/16 01:26:20;;;;;;;7.57;5.60;;;9.20;99.90;;;;;;5017919;28;20655;-75
2022/04/16 01:28:46;;;;;;;7.03;5.47;;;9.20;99.90;;;;;;5034346;28;20215;-75
2022/04/16 01:31:12;;;;;;;6.73;5.30;;;9.20;99.90;;;;;;5014306;28;20188;-75
2022/04/16 01:33:38;;;;;;;8.17;5.73;;;9.20;99.90;;;;;;4997989;28;20171;-74
2022/04/16 01:36:03;;;;;;;7.90;6.17;;;9.10;99.90;;;;;;4982054;28;20602;-74
2022/04/16 01:38:29;;;;;;;7.93;6.03;;;9.10;99.90;;;;;;5011662;28;20267;-75
2022/04/16 01:40:56;;;;;;;6.93;5.83;;;9.00;99.90;;;;;;5001716;28;20207;-74
2022/04/16 01:43:21;;;;;;;7.27;6.20;;;8.90;99.90;;;;;;5034242;28;20183;-75
2022/04/16 01:45:49;;;;;;;8.60;6.70;;;8.90;99.90;;;;;;5034089;28;20228;-75
2022/04/16 01:48:18;;;;;;;8.70;6.60;;;8.80;99.90;;;;;;5017850;28;20759;-75
2022/04/16 01:50:48;;;;;;;8.37;6.40;;;8.90;99.90;;;;;;5034864;28;20188;-75
2022/04/16 01:53:15;;;;;;;8.27;6.60;;;8.80;99.90;;;;;;5002295;28;20206;-74
2022/04/16 01:55:40;;;;;;;9.43;6.30;;;8.80;99.90;;;;;;5017368;28;20171;-75
2022/04/16 01:58:06;;;;;;;9.43;6.80;;;8.80;99.90;;;;;;5017698;28;20205;-75
2022/04/16 02:00:33;;;;;;;8.97;6.47;;;8.70;99.90;;;;;;5017709;28;20586;-75
2022/04/16 02:03:01;;;;;;;8.50;6.63;;;8.60;99.90;;;;;;5033760;28;20174;-75
2022/04/16 02:12:13;;;;;;;8.40;6.63;;;8.70;99.90;;;;;;5055062;28;20739;-75
2022/04/16 02:14:38;;;;;;;8.43;6.60;;;8.70;99.90;;;;;;5005320;28;20254;-75
2022/04/16 02:17:04;;;;;;;7.97;6.70;;;8.70;99.90;;;;;;5020906;28;20715;-75
2022/04/16 02:19:30;;;;;;;9.13;6.93;;;8.70;99.90;;;;;;5018249;28;20253;-75
2022/04/16 02:21:55;;;;;;;9.03;6.77;;;8.70;99.90;;;;;;5004647;28;20241;-75
2022/04/16 02:24:21;;;;;;;9.67;6.80;;;8.60;99.90;;;;;;5004868;28;20631;-75
2022/04/16 02:26:47;;;;;;;10.47;7.43;;;8.70;99.90;;;;;;5020795;28;20273;-74
2022/04/16 02:29:13;;;;;;;9.87;7.43;;;8.50;99.90;;;;;;5020866;28;20181;-75
2022/04/16 02:31:39;;;;;;;9.03;7.20;;;8.70;99.90;;;;;;5020979;28;20198;-75
2022/04/16 02:34:05;;;;;;;10.13;7.67;;;8.60;99.90;;;;;;5037020;28;20170;-75
2022/04/16 02:36:32;;;;;;;11.30;7.63;;;8.50;99.90;;;;;;5036985;28;20187;-75
2022/04/16 02:38:58;;;;;;;9.10;7.00;;;8.50;99.90;;;;;;5020494;28;20251;-75
2022/04/16 02:41:24;;;;;;;10.33;7.47;;;8.40;99.90;;;;;;5055029;28;20236;-75
2022/04/16 02:43:54;;;;;;;10.07;7.20;;;8.40;99.90;;;;;;5036850;28;20231;-74
2022/04/16 02:49:05;;;;;;;8.03;6.20;;;8.40;99.90;;;;;;5025951;28;20185;-75
2022/04/16 02:51:30;;;;;;;9.00;6.87;;;8.40;99.90;;;;;;5000721;28;20203;-75
2022/04/16 02:53:56;;;;;;;9.13;6.63;;;8.40;99.90;;;;;;5000504;28;20182;-74
2022/04/16 02:56:21;;;;;;;10.23;7.27;;;8.30;99.90;;;;;;5000668;28;20282;-74
2022/04/16 02:58:47;;;;;;;8.27;6.67;;;8.30;99.90;;;;;;5000435;28;20202;-75
2022/04/16 03:01:12;;;;;;;8.83;6.67;;;8.40;99.90;;;;;;5000532;28;20244;-75
2022/04/16 03:03:38;;;;;;;8.00;6.80;;;8.40;99.90;;;;;;5052193;28;20220;-75
2022/04/16 03:06:08;;;;;;;10.07;6.67;;;8.40;99.90;;;;;;5016718;28;20273;-75
2022/04/16 03:08:35;;;;;;;9.33;6.63;;;8.50;99.90;;;;;;5000876;28;20167;-75
2022/04/16 03:11:01;;;;;;;9.87;7.37;;;8.50;99.90;;;;;;5016592;28;20198;-75
2022/04/16 03:13:27;;;;;;;10.53;7.30;;;8.30;99.90;;;;;;5016654;28;20174;-75
2022/04/16 03:18:37;;;;;;;10.97;7.23;;;8.30;99.90;;;;;;5019525;28;20205;-74
2022/04/16 03:21:03;;;;;;;9.40;6.47;;;8.20;99.90;;;;;;5015340;28;20194;-74
2022/04/16 03:23:29;;;;;;;9.00;6.50;;;8.20;99.90;;;;;;5032528;28;20178;-75
2022/04/16 03:25:58;;;;;;;8.37;6.67;;;8.10;99.90;;;;;;5000393;28;20213;-75
2022/04/16 03:28:24;;;;;;;9.30;6.83;;;8.10;99.90;;;;;;5016508;28;20269;-74
2022/04/16 03:30:50;;;;;;;8.73;6.47;;;8.10;99.90;;;;;;5000197;28;20296;-74
2022/04/16 03:33:16;;;;;;;7.80;6.40;;;7.90;99.90;;;;;;4999924;28;20640;-74
2022/04/16 03:35:41;;;;;;;7.93;5.90;;;7.90;99.90;;;;;;5000415;28;20197;-74
2022/04/16 03:38:07;;;;;;;8.63;6.20;;;8.00;99.90;;;;;;5000036;28;20200;-74
2022/04/16 03:40:33;;;;;;;7.73;5.60;;;8.00;99.90;;;;;;5007305;28;20230;-74
2022/04/16 03:43:00;;;;;;;7.50;6.00;;;8.10;99.90;;;;;;5035592;28;20769;-75
2022/04/16 03:45:29;;;;;;;8.23;5.93;;;8.10;99.90;;;;;;5019808;28;20192;-75
2022/04/16 03:47:57;;;;;;;8.17;6.20;;;8.00;99.90;;;;;;5036216;28;20185;-74
2022/04/16 03:50:24;;;;;;;7.43;5.93;;;8.00;99.90;;;;;;5003001;28;20198;-74
2022/04/16 03:52:51;;;;;;;7.87;6.03;;;8.00;99.90;;;;;;5035595;28;20211;-74
2022/04/16 04:00:55;;;;;;;8.73;6.20;;;7.70;99.90;;;;;;5038798;28;20729;-75
2022/04/16 04:03:21;;;;;;;8.47;6.10;;;7.60;99.90;;;;;;5035520;28;20177;-75
2022/04/16 04:06:09;;;;;;;8.00;6.23;;;7.70;99.90;;;;;;5015931;28;20204;-75
2022/04/16 04:08:34;;;;;;;8.10;5.70;;;7.80;99.90;;;;;;4999659;28;20178;-75
2022/04/16 04:11:01;;;;;;;7.13;5.40;;;7.70;99.90;;;;;;5015991;28;20254;-75
2022/04/16 04:13:26;;;;;;;9.27;6.00;;;7.80;99.90;;;;;;5015569;28;20177;-75
2022/04/16 04:15:52;;;;;;;7.87;5.93;;;7.70;99.90;;;;;;4982962;28;20184;-75
2022/04/16 04:18:18;;;;;;;9.83;6.90;;;7.70;99.90;;;;;;4999251;28;20205;-75
2022/04/16 04:20:43;;;;;;;8.67;6.13;;;7.70;99.90;;;;;;4999189;28;20723;-75
2022/04/16 04:23:09;;;;;;;9.23;5.97;;;7.70;99.90;;;;;;4998901;28;20261;-75
2022/04/16 04:25:35;;;;;;;10.30;6.63;;;7.50;99.90;;;;;;5015554;28;20183;-75
2022/04/16 04:28:00;;;;;;;11.57;7.33;;;7.50;99.90;;;;;;5005358;28;20173;-75
2022/04/16 04:30:26;;;;;;;10.03;6.70;;;7.50;99.90;;;;;;5015327;28;20288;-75
2022/04/16 04:32:51;;;;;;;10.40;6.70;;;7.50;99.90;;;;;;5014983;28;20187;-75
2022/04/16 04:35:17;;;;;;;10.70;6.47;;;7.50;99.90;;;;;;4982497;28;20674;-75
2022/04/16 04:37:43;;;;;;;11.17;6.67;;;7.60;99.90;;;;;;4998836;28;20184;-75
2022/04/16 04:40:09;;;;;;;8.83;6.27;;;7.60;99.90;;;;;;5010739;28;21669;-75
2022/04/16 04:42:36;;;;;;;9.97;6.20;;;7.60;99.90;;;;;;4997889;28;20285;-75
2022/04/16 04:45:13;;;;;;;13.30;7.27;;;7.70;99.90;;;;;;5037449;28;20181;-76
2022/04/16 04:47:39;;;;;;;9.90;6.53;;;7.70;99.90;;;;;;5018478;28;20165;-76
2022/04/16 04:50:06;;;;;;;11.77;7.13;;;7.70;99.90;;;;;;5018120;28;20187;-75
2022/04/16 04:52:31;;;;;;;11.63;7.27;;;7.70;99.90;;;;;;5052186;28;20195;-74
2022/04/16 04:55:05;;;;;;;11.03;7.53;;;7.80;99.90;;;;;;5018049;28;20579;-75
2022/04/16 04:57:31;;;;;;;12.73;7.57;;;7.60;99.90;;;;;;5034733;28;20212;-75
2022/04/16 04:59:56;;;;;;;12.87;7.90;;;7.60;99.90;;;;;;5009070;28;20231;-75
2022/04/16 05:02:22;;;;;;;12.93;7.83;;;7.50;99.90;;;;;;5001778;28;20562;-75
2022/04/16 05:04:48;;;;;;;10.93;7.03;;;7.50;99.90;;;;;;5001909;28;20172;-75
2022/04/16 05:07:13;;;;;;;12.03;7.27;;;7.40;99.90;;;;;;5014517;28;20185;-75
2022/04/16 05:09:39;;;;;;;9.53;6.23;;;7.50;99.90;;;;;;5018185;28;20189;-75
2022/04/16 05:12:05;;;;;;;9.63;6.53;;;7.60;99.90;;;;;;5034268;28;20788;-75
2022/04/16 05:14:34;;;;;;;9.63;6.10;;;7.40;99.90;;;;;;5017737;28;20184;-74
2022/04/16 05:17:00;;;;;;;7.97;5.67;;;7.40;99.90;;;;;;5018707;28;20188;-75
2022/04/16 05:19:25;;;;;;;9.60;6.30;;;7.40;99.90;;;;;;5034704;28;20213;-77
2022/04/16 05:21:51;;;;;;;7.77;5.73;;;7.40;99.90;;;;;;5017707;28;20206;-75
2022/04/16 05:24:17;;;;;;;9.03;5.57;;;7.40;99.90;;;;;;5034331;28;20274;-74
2022/04/16 05:26:42;;;;;;;9.80;6.00;;;7.30;99.90;;;;;;5014822;28;20202;-75
2022/04/16 05:29:08;;;;;;;10.33;6.53;;;7.20;99.90;;;;;;5022651;28;20191;-75
2022/04/16 05:31:34;;;;;;;11.17;7.03;;;7.20;99.90;;;;;;5034292;28;20257;-76
2022/04/16 05:34:19;;;;;;;13.17;7.63;;;7.30;99.90;;;;;;5018006;28;20258;-75
2022/04/16 05:36:46;;;;;;;11.47;7.60;;;7.30;99.90;;;;;;5023197;28;20224;-75
2022/04/16 05:39:12;;;;;;;12.70;7.27;;;7.20;99.90;;;;;;5034132;28;20230;-75
2022/04/16 05:41:37;;;;;;;11.30;7.50;;;7.20;99.90;;;;;;5017899;28;20224;-75
2022/04/16 05:44:04;;;;;;;12.87;7.87;;;7.30;99.90;;;;;;5054018;28;20230;-75
2022/04/16 05:46:31;;;;;;;11.60;7.17;;;7.20;99.90;;;;;;5037929;28;20187;-76
2022/04/16 05:48:57;;;;;;;13.37;8.03;;;7.10;99.90;;;;;;5038211;28;20185;-76
2022/04/16 05:51:24;;;;;;;11.73;7.87;;;7.10;99.90;;;;;;5038196;28;20614;-76
2022/04/16 05:53:51;;;;;;;11.00;6.73;;;7.10;99.90;;;;;;5021671;28;20223;-76
2022/04/16 05:56:24;;;;;;;12.97;7.30;;;7.10;99.90;;;;;;5037376;28;20182;-76
2022/04/16 05:58:49;;;;;;;11.30;7.23;;;7.20;99.90;;;;;;5018139;28;20234;-75
2022/04/16 06:01:15;;;;;;;9.07;6.70;;;7.40;99.90;;;;;;5009118;28;20251;-76
2022/04/16 06:03:41;;;;;;;11.27;7.00;;;7.40;99.90;;;;;;5001430;28;20180;-76
2022/04/16 06:06:07;;;;;;;10.20;6.60;;;7.20;99.90;;;;;;4985751;28;20185;-76
2022/04/16 06:08:33;;;;;;;10.50;6.20;;;7.10;99.90;;;;;;4985826;28;20214;-76
2022/04/16 06:10:58;;;;;;;9.63;6.20;;;7.20;99.90;;;;;;5017810;28;20678;-76
2022/04/16 06:13:25;;;;;;;8.57;5.57;;;7.20;99.90;;;;;;5017742;28;20191;-76
2022/04/16 06:15:51;;;;;;;8.00;5.10;;;7.10;99.90;;;;;;4987758;28;20181;-76
2022/04/16 06:18:17;;;;;;;7.87;5.27;;;7.20;99.90;;;;;;5020849;28;20290;-76
2022/04/16 06:20:43;;;;;;;6.07;4.37;;;7.10;99.90;;;;;;5020937;28;20211;-76
2022/04/16 06:23:09;;;;;;;5.83;4.70;;;7.10;99.90;;;;;;5021100;28;20180;-75
2022/04/16 06:25:35;;;;;;;7.10;5.00;;;7.10;99.90;;;;;;5013854;28;20605;-76
2022/04/16 06:28:02;;;;;;;6.90;5.07;;;7.10;99.90;;;;;;5055322;28;20165;-75
2022/04/16 06:30:27;;;;;;;6.87;5.17;;;7.10;99.90;;;;;;5017317;28;20208;-77
2022/04/16 06:32:53;;;;;;;6.13;4.83;;;7.10;99.90;;;;;;5017511;28;20181;-76
2022/04/16 06:35:19;;;;;;;7.80;4.80;;;7.10;99.90;;;;;;5033689;28;20183;-76
2022/04/16 06:37:49;;;;;;;6.40;4.57;;;7.00;99.90;;;;;;5037124;28;20322;-76
2022/04/16 06:40:14;;;;;;;7.17;4.70;;;7.10;99.90;;;;;;5037190;28;20210;-75
2022/04/16 06:42:41;;;;;;;6.50;4.30;;;7.20;99.90;;;;;;5037186;28;20183;-75
2022/04/16 06:45:08;;;;;;;7.80;4.33;;;7.20;99.90;;;;;;5020368;28;20210;-75
2022/04/16 06:47:34;;;;;;;6.70;4.80;;;7.20;99.90;;;;;;5037013;28;20176;-76
2022/04/16 06:50:00;;;;;;;7.00;4.40;;;7.30;99.90;;;;;;5036952;28;20178;-75
2022/04/16 06:52:26;;;;;;;6.23;4.20;;;7.40;99.90;;;;;;5020206;28;20194;-75
2022/04/16 06:54:51;;;;;;;6.17;4.03;;;7.30;99.90;;;;;;5016973;28;20266;-76
2022/04/16 06:57:17;;;;;;;7.10;3.90;;;7.20;99.90;;;;;;5000620;28;20268;-75
2022/04/16 06:59:43;;;;;;;6.03;3.67;;;7.10;99.90;;;;;;5016790;28;20199;-76
2022/04/16 07:02:10;;;;;;;5.27;3.60;;;7.20;99.90;;;;;;5016894;28;20613;-75
2022/04/16 07:04:36;;;;;;;4.20;3.63;;;7.30;99.90;;;;;;5017020;28;20167;-75
2022/04/16 07:07:02;;;;;;;4.20;3.30;;;7.10;99.90;;;;;;5016698;28;20176;-75
2022/04/16 07:09:28;;;;;;;4.40;3.27;;;7.20;99.90;;;;;;5010095;28;20704;-75
2022/04/16 07:11:54;;;;;;;3.70;2.93;;;7.30;99.90;;;;;;5020140;28;20206;-75
2022/04/16 07:14:20;;;;;;;3.40;2.53;;;7.10;99.90;;;;;;5019821;28;20290;-74
2022/04/16 07:16:46;;;;;;;4.30;2.53;;;7.10;99.90;;;;;;5036611;28;20205;-75
2022/04/16 07:19:12;;;;;;;4.90;2.97;;;7.20;99.90;;;;;;5003514;28;20230;-74
2022/04/16 07:21:37;;;;;;;7.10;3.33;;;7.30;99.90;;;;;;5016153;28;20284;-75
2022/04/16 07:24:03;;;;;;;3.47;2.57;;;7.40;99.90;;;;;;5001115;28;20173;-76
2022/04/16 07:26:29;;;;;;;3.90;2.50;;;7.60;99.90;;;;;;5032808;28;20646;-74
2022/04/16 07:28:54;;;;;;;3.40;2.30;;;7.70;99.90;;;;;;5000289;28;20231;-75
2022/04/16 07:31:33;;;;;;;2.93;2.63;;;7.90;99.90;;;;;;5011312;28;20666;-74
2022/04/16 07:33:59;;;;;;;4.17;2.47;;;7.90;99.90;;;;;;5018624;28;20172;-75
2022/04/16 07:36:24;;;;;;;3.33;2.30;;;7.90;99.90;;;;;;5019671;28;20181;-74
2022/04/16 07:38:50;;;;;;;3.63;2.40;;;7.90;99.90;;;;;;5015888;28;20197;-79
2022/04/16 07:41:16;;;;;;;2.57;2.37;;;7.90;99.90;;;;;;4999531;28;20198;-75
2022/04/16 07:43:41;;;;;;;3.30;2.50;;;8.00;99.90;;;;;;4999333;28;20176;-75
2022/04/16 07:46:07;;;;;;;4.43;2.50;;;7.80;99.90;;;;;;5019502;28;20176;-75
2022/04/16 07:48:33;;;;;;;2.90;2.20;;;7.80;99.90;;;;;;5016216;28;20184;-80
2022/04/16 07:50:58;;;;;;;3.73;2.57;;;7.70;99.90;;;;;;5008893;28;20220;-76
2022/04/16 07:53:24;;;;;;;2.63;2.20;;;7.70;99.90;;;;;;5019295;28;20181;-75
2022/04/16 07:55:49;;;;;;;3.50;2.50;;;7.80;99.90;;;;;;5019299;28;20181;-75
2022/04/16 07:58:15;;;;;;;2.67;2.47;;;8.00;99.90;;;;;;5035855;28;20177;-75
2022/04/16 08:00:41;;;;;;;2.67;2.17;;;8.20;99.90;;;;;;4999334;28;20622;-75
2022/04/16 08:03:06;;;;;;;2.40;2.10;;;8.20;99.90;;;;;;5015943;28;20185;-75
2022/04/16 08:05:32;;;;;;;2.37;2.00;;;8.30;99.90;;;;;;5002526;28;20184;-75
2022/04/16 08:07:58;;;;;;;3.10;2.47;;;8.50;99.90;;;;;;5024697;28;20177;-76
2022/04/16 08:10:23;;;;;;;2.80;2.10;;;8.40;99.90;;;;;;5035268;28;20197;-76
2022/04/16 08:12:49;;;;;;;4.47;2.43;;;8.50;99.90;;;;;;5018896;28;20187;-75
2022/04/16 08:15:17;;;;;;;3.13;2.20;;;8.60;99.90;;;;;;5002118;28;20234;-75
2022/04/16 08:17:42;;;;;;;2.57;2.00;;;8.80;99.90;;;;;;5019303;28;20638;-75
2022/04/16 08:20:09;;;;;;;2.60;1.87;;;8.70;99.90;;;;;;5018733;28;20252;-75
2022/04/16 08:22:34;;;;;;;2.97;1.90;;;8.70;99.90;;;;;;4999132;28;20205;-75
2022/04/16 08:27:48;;;;;;;2.60;1.90;;;8.90;99.90;;;;;;5053213;28;20531;-74
2022/04/16 08:30:16;;;;;;;3.30;1.90;;;9.00;99.90;;;;;;5018796;28;20206;-74
2022/04/16 08:32:42;;;;;;;1.60;1.40;;;9.20;99.90;;;;;;5018660;28;20655;-75
2022/04/16 08:35:47;;;;;;;2.10;1.90;;;9.30;99.90;;;;;;5034841;28;20247;-75
2022/04/16 08:38:13;;;;;;;2.33;1.83;;;9.40;99.90;;;;;;5034805;28;20193;-75
2022/04/16 08:40:39;;;;;;;2.13;1.70;;;9.50;99.90;;;;;;5018378;28;20216;-75
2022/04/16 08:43:07;;;;;;;2.03;1.60;;;9.50;99.90;;;;;;5034888;28;20208;-74
2022/04/16 08:45:37;;;;;;;1.80;1.40;;;9.70;99.90;;;;;;5018678;28;20190;-74
2022/04/16 08:48:03;;;;;;;2.00;1.53;;;9.90;99.90;;;;;;5034835;28;20633;-74
2022/04/16 08:50:29;;;;;;;1.40;1.30;;;10.00;99.90;;;;;;5018138;28;20209;-74
2022/04/16 08:52:57;;;;;;;1.97;1.43;;;10.00;99.90;;;;;;5034640;28;20545;-74
2022/04/16 08:55:22;;;;;;;2.87;1.90;;;10.20;99.90;;;;;;5034867;28;20526;-73
2022/04/16 08:57:48;;;;;;;2.23;1.40;;;10.20;99.90;;;;;;5001723;28;20272;-74
2022/04/16 09:00:14;;;;;;;2.10;1.43;;;10.20;99.90;;;;;;5034618;28;20211;-73
2022/04/16 09:02:50;;;;;;;1.40;1.20;;;10.20;99.90;;;;;;5001823;28;20170;-73
2022/04/16 09:05:18;;;;;;;1.73;1.30;;;10.30;99.90;;;;;;5018462;28;20162;-74
2022/04/16 09:07:57;;;;;;;1.40;1.20;;;10.40;99.90;;;;;;5018021;28;20178;-74
2022/04/16 09:10:31;;;;;;;1.43;1.33;;;10.70;99.90;;;;;;5018254;28;20297;-74
2022/04/16 09:12:59;;;;;;;2.10;1.40;;;10.70;99.90;;;;;;4995064;28;20175;-74
2022/04/16 09:15:26;;;;;;;2.40;1.47;;;10.80;99.90;;;;;;5031462;28;20234;-74
2022/04/16 09:18:06;;;;;;;1.73;1.40;;;10.90;99.90;;;;;;5035951;28;20189;-75
2022/04/16 09:20:38;;;;;;;2.23;1.53;;;11.10;99.90;;;;;;5038756;28;20199;-75
2022/04/16 09:23:20;;;;;;;1.80;1.40;;;11.20;99.90;;;;;;5005629;28;20207;-74
2022/04/16 09:25:47;;;;;;;1.50;1.40;;;11.60;99.90;;;;;;5038664;28;20179;-74
2022/04/16 09:28:18;;;;;;;2.63;1.30;;;11.40;98.70;;;;;;5038414;28;20173;-74
2022/04/16 09:30:55;;;;;;;2.17;1.57;;;11.40;99.90;;;;;;5047023;28;20243;-74
2022/04/16 09:33:21;;;;;;;2.93;1.47;;;11.60;99.90;;;;;;5038092;28;20161;-74
2022/04/16 09:35:47;;;;;;;1.80;1.20;;;11.60;99.90;;;;;;5021746;28;20191;-74
2022/04/16 09:38:17;;;;;;;1.53;1.30;;;11.90;99.90;;;;;;5038509;28;20196;-73
2022/04/16 09:40:46;;;;;;;1.83;1.33;;;12.20;99.90;;;;;;5005051;28;20283;-76
2022/04/16 09:43:11;;;;;;;1.40;1.27;;;12.20;96.90;;;;;;5001544;28;20222;-76
2022/04/16 09:45:39;;;;;;;1.87;1.20;;;12.00;96.00;;;;;;5002508;28;20271;-76
2022/04/16 09:48:08;;;;;;;1.10;1.00;;;12.00;98.20;;;;;;4985899;28;20175;-76
2022/04/16 09:50:34;;;;;;;2.50;1.30;;;12.40;99.90;;;;;;4986240;28;20218;-77
2022/04/16 09:53:38;;;;;;;1.73;1.20;;;12.80;97.40;;;;;;5001870;28;20641;-77
2022/04/16 09:56:10;;;;;;;1.47;1.13;;;12.60;95.40;;;;;;5036127;28;20157;-75
2022/04/16 09:58:40;;;;;;;1.70;0.90;;;12.50;97.80;;;;;;4986103;28;20572;-76
2022/04/16 10:01:09;;;;;;;1.17;0.90;;;12.30;83.30;;;;;;4986482;28;20225;-77
2022/04/16 10:03:35;;;;;;;1.80;1.30;;;12.20;86.60;;;;;;5029953;28;20197;-75
2022/04/16 10:06:01;;;;;;;1.00;1.00;;;12.40;86.30;;;;;;5009928;28;20193;-78
2022/04/16 10:08:28;;;;;;;2.10;1.00;;;12.80;90.20;;;;;;5036869;28;20189;-78
2022/04/16 10:10:57;;;;;;;1.43;1.00;;;13.00;81.70;;;;;;5037421;28;20201;-75
2022/04/16 10:13:24;;;;;;;2.00;1.10;;;13.20;75.60;;;;;;4992233;28;20202;-75
2022/04/16 10:16:01;;;;;;;1.10;1.00;;;13.20;73.20;;;;;;5001692;28;20190;-76
2022/04/16 10:18:28;;;;;;;1.30;1.10;;;13.20;75.70;;;;;;5039493;28;20279;-77
2022/04/16 10:20:55;;;;;;;1.90;1.10;;;13.10;69.50;;;;;;5057132;28;20200;-76
2022/04/16 10:23:28;;;;;;;1.17;1.00;;;13.10;70.30;;;;;;5037535;28;20188;-77
2022/04/16 10:26:06;;;;;;;1.77;1.00;;;13.40;78.00;;;;;;5037299;28;20173;-78
2022/04/16 10:28:51;;;;;;;0.80;0.80;;;13.70;75.90;;;;;;5045410;23;20229;-75
2022/04/16 10:31:27;;;;;;;1.10;1.00;;;13.90;72.90;;;;;;5017170;28;20168;-75
2022/04/16 10:34:05;;;;;;;1.93;1.10;;;14.00;71.50;;;;;;5037685;28;20170;-77
2022/04/16 10:36:37;;;;;;;1.40;1.00;;;14.30;67.10;;;;;;5053487;28;20180;-76
2022/04/16 10:39:19;;;;;;;0.80;0.80;;;14.00;63.90;;;;;;5001407;28;20703;-75
2022/04/16 10:42:04;;;;;;;1.30;1.00;;;13.80;60.70;;;;;;4996692;28;20171;-75
2022/04/16 10:44:43;;;;;;;1.13;1.00;;;14.10;65.80;;;;;;5013885;28;20223;-75
2022/04/16 10:47:14;;;;;;;1.10;1.00;;;14.20;59.00;;;;;;5032309;28;20240;-75
2022/04/16 10:49:41;;;;;;;1.57;0.87;;;14.30;60.10;;;;;;5001342;28;20272;-75
2022/04/16 10:52:28;;;;;;;1.43;1.00;;;14.50;59.70;;;;;;5016618;28;20215;-75
2022/04/16 10:55:14;;;;;;;1.20;0.83;;;14.70;58.00;;;;;;5034767;28;20510;-75
2022/04/16 10:57:40;;;;;;;1.23;1.00;;;14.40;56.40;;;;;;5016659;28;20206;-75
2022/04/16 11:00:13;;;;;;;1.27;1.00;;;14.30;58.30;;;;;;4984444;28;20197;-74
2022/04/16 11:02:39;;;;;;;0.90;0.90;;;14.10;56.60;;;;;;5000688;28;20178;-75
2022/04/16 11:05:09;;;;;;;1.23;0.90;;;14.10;55.70;;;;;;5000587;28;20170;-75
2022/04/16 11:07:40;;;;;;;1.80;0.80;;;14.10;59.80;;;;;;5016557;28;20216;-75
2022/04/16 11:10:06;;;;;;;1.40;0.97;;;14.40;60.90;;;;;;5015027;28;20229;-77
2022/04/16 11:12:32;;;;;;;1.40;1.10;;;14.80;62.00;;;;;;5016603;28;20179;-75
2022/04/16 11:14:59;;;;;;;1.27;0.83;;;15.00;58.20;;;;;;5016615;28;20186;-76
2022/04/16 11:17:24;;;;;;;1.07;0.93;;;14.90;53.90;;;;;;4984606;28;20205;-75
2022/04/16 11:20:16;;;;;;;0.70;0.70;;;14.80;55.00;;;;;;5000055;28;20190;-76
2022/04/16 11:22:46;;;;;;;1.50;1.00;;;14.80;55.50;;;;;;5034327;28;20151;-76
2022/04/16 11:25:12;;;;;;;1.47;0.90;;;14.90;54.70;;;;;;5033960;28;20174;-75
2022/04/16 11:36:01;;;;;;;1.47;0.90;;;14.60;52.10;;;;;;5019285;28;20166;-76
2022/04/16 11:38:28;;;;;;;1.00;0.90;;;14.50;49.60;;;;;;5016114;28;20194;-77
2022/04/16 11:40:55;;;;;;;1.57;0.97;;;14.60;50.90;;;;;;5015452;28;20177;-75
2022/04/16 11:43:23;;;;;;;0.90;0.90;;;14.40;48.10;;;;;;4999992;28;20741;-76
2022/04/16 11:45:50;;;;;;;1.50;0.77;;;14.70;50.40;;;;;;5000005;28;20178;-76
2022/04/16 11:48:16;;;;;;;1.00;0.83;;;14.90;51.10;;;;;;4999875;28;20201;-75
2022/04/16 11:50:43;;;;;;;1.17;1.00;;;14.90;51.00;;;;;;5015943;28;20182;-76
2022/04/16 11:53:12;;;;;;;2.20;1.00;;;15.10;56.40;;;;;;4983162;28;20182;-76
2022/04/16 11:55:45;;;;;;;1.10;0.90;;;15.20;51.50;;;;;;5016237;28;20182;-76
2022/04/16 11:58:11;;;;;;;2.20;1.40;;;15.60;50.10;;;;;;5033331;28;20231;-75
2022/04/16 12:00:48;;;;;;;0.83;0.80;;;15.30;48.80;;;;;;5016130;28;20174;-75
2022/04/16 12:03:17;;;;;;;1.50;1.00;;;15.20;46.40;;;;;;5015687;28;20308;-76
2022/04/16 12:05:42;;;;;;;1.33;1.00;;;15.00;47.10;;;;;;5016009;28;20182;-75
2022/04/16 12:08:10;;;;;;;2.37;1.00;;;15.10;46.80;;;;;;4983415;28;20194;-75
2022/04/16 12:10:37;;;;;;;0.90;0.80;;;15.00;49.50;;;;;;4991121;28;20186;-75
2022/04/16 12:13:13;;;;;;;1.43;0.80;;;15.00;48.50;;;;;;4989944;28;20190;-75
2022/04/16 12:15:44;;;;;;;1.63;0.90;;;15.20;50.10;;;;;;4999125;28;20186;-76
2022/04/16 12:18:22;;;;;;;1.33;1.00;;;15.30;62.40;;;;;;4998697;28;20202;-75
2022/04/16 12:20:48;;;;;;;0.87;0.77;;;15.50;49.60;;;;;;5015504;28;20174;-76
2022/04/16 12:23:24;;;;;;;2.30;0.80;;;15.70;49.00;;;;;;5030498;28;20174;-76
2022/04/16 12:25:50;;;;;;;1.37;0.87;;;15.80;45.80;;;;;;5013334;28;20182;-76
2022/04/16 12:28:16;;;;;;;0.73;0.73;;;15.60;44.20;;;;;;4979340;28;20217;-76
2022/04/16 12:30:51;;;;;;;0.97;0.87;;;15.80;50.80;;;;;;4963545;28;20175;-76
2022/04/16 12:33:17;;;;;;;1.10;1.00;;;16.10;43.70;;;;;;4979335;28;20548;-75
2022/04/16 12:35:50;;;;;;;0.80;0.80;;;16.00;44.30;;;;;;5008649;28;20179;-77
2022/04/16 12:38:17;;;;;;;1.20;0.90;;;16.10;43.40;;;;;;5029285;28;20208;-75
2022/04/16 12:40:43;;;;;;;0.87;0.87;;;15.80;43.30;;;;;;4999299;28;20236;-75
2022/04/16 12:43:09;;;;;;;1.10;0.90;;;16.00;44.70;;;;;;4998183;28;20610;-75
2022/04/16 12:45:35;;;;;;;1.37;0.90;;;15.40;45.00;;;;;;4978931;28;20646;-75
2022/04/16 12:48:01;;;;;;;1.43;0.90;;;15.80;45.70;;;;;;4996387;28;20248;-75
2022/04/16 12:50:28;;;;;;;1.20;0.90;;;16.10;45.50;;;;;;5014963;28;20170;-75
2022/04/16 12:52:54;;;;;;;1.33;0.93;;;16.20;45.70;;;;;;5014384;28;20206;-75
2022/04/16 12:55:20;;;;;;;0.90;0.90;;;16.20;44.40;;;;;;5004882;28;20207;-74
2022/04/16 12:57:45;;;;;;;1.63;0.90;;;16.40;45.80;;;;;;5011402;28;20216;-74
2022/04/16 13:00:14;;;;;;;5.90;1.00;;;16.60;45.20;;;;;;4987980;28;20671;-74
2022/04/16 13:02:42;;;;;;;1.10;1.00;;;16.70;42.90;;;;;;4962504;28;20190;-75
2022/04/16 13:05:09;;;;;;;1.07;0.97;;;16.30;41.90;;;;;;4981664;28;20202;-75
2022/04/16 13:07:41;;;;;;;1.20;1.00;;;16.20;43.40;;;;;;5032640;28;20225;-75
2022/04/16 13:10:08;;;;;;;1.10;0.90;;;16.40;46.00;;;;;;5014713;28;20171;-75
2022/04/16 13:12:34;;;;;;;1.27;0.90;;;16.50;41.70;;;;;;4982170;28;20224;-75
2022/04/16 13:15:00;;;;;;;0.90;0.90;;;16.30;41.40;;;;;;5015123;28;20173;-75
2022/04/16 13:17:26;;;;;;;1.10;1.00;;;16.40;41.70;;;;;;4998553;28;20195;-76
2022/04/16 13:19:52;;;;;;;1.13;1.03;;;16.10;40.60;;;;;;5014293;28;20198;-75
2022/04/16 13:22:18;;;;;;;1.00;0.90;;;16.00;39.00;;;;;;4981692;28;20174;-75
2022/04/16 13:24:44;;;;;;;1.37;1.00;;;15.90;40.40;;;;;;5014680;28;20170;-74